Malaspina — WI6803 — position and weather

sailwx.info

Track history (hours):
 
Tides and Currents Weather Stations Pressure Air Temp Water Temp Dewpoint Dewpoint Depression Visibility Wind Speed Wind Dir Waves Ship Positions

Malaspina

Owner: ALASKA, STATE OF, ANCHORAGE, AK. More information available from US FCC via Universal Licensing System and Coast Guard Vessel Documentation Center.

Last reported at 2019-Apr-23 22:50 UTC. Time now 2019-Apr-24 21:51 UTC.
Position N 54°45' W 130°57'.

Type: Passenger vessel. MMSI: 367143000.

Date/timePositionNaut miles runAvg speedWind from/ knotsBaromVisibWave heightAir tempDewpointWater temp
2019-Apr-23 22:50N 54°45' W 130°57'1814.4
2019-Apr-23 21:35N 54°31' W 130°39'215.5
2019-Apr-23 21:28N 54°29' W 130°38'715.2
2019-Apr-23 21:00N 54°22' W 130°36'815.1
2019-Apr-23 20:30N 54°16' W 130°29'5 9.6
2019-Apr-23 20:00N 54°14' W 130°21'4 7.4
2019-Apr-23 19:30N 54°18' W 130°22'0 0.5
2019-Apr-23 18:55N 54°18' W 130°21'0 0.0
2019-Apr-23 18:19N 54°18' W 130°21'0 0.0
2019-Apr-23 17:55N 54°18' W 130°21'0 0.0
2019-Apr-23 17:25N 54°18' W 130°21'0 0.0
2019-Apr-23 17:00N 54°18' W 130°21'3 5.5
2019-Apr-23 16:30N 54°15' W 130°21'3 5.6
2019-Apr-23 16:00N 54°14' W 130°25'3 6.1
2019-Apr-23 15:30N 54°15' W 130°29'2 3.2
2019-Apr-23 15:00N 54°14' W 130°27'613.0
2019-Apr-23 14:30N 54°19' W 130°35'815.0
2019-Apr-23 14:00N 54°26' W 130°37'815.3
2019-Apr-23 13:30N 54°34' W 130°40'1615.1
2019-Apr-23 12:27N 54°46' W 130°57'250 6.4
2019-Apr-21 21:38N 58°09' W 135°20'215.2
2019-Apr-21 21:30N 58°09' W 135°24'3 2.3
2019-Apr-21 20:07N 58°07' W 135°28'1 9.2
2019-Apr-21 19:59N 58°08' W 135°28'  
2019-Apr-18 14:19N 58°09' W 135°20'513.9
2019-Apr-18 14:00N 58°08' W 135°28'1 0.8
2019-Apr-18 12:57N 58°07' W 135°27'1 2.3
2019-Apr-18 12:30N 58°08' W 135°29'258 6.1
2019-Apr-16 18:23N 54°42' W 130°50'615.5
2019-Apr-16 18:00N 54°37' W 130°43'714.8
2019-Apr-16 17:30N 54°30' W 130°39'815.8
2019-Apr-16 17:00N 54°22' W 130°36'815.1
2019-Apr-16 16:30N 54°16' W 130°30'611.1
2019-Apr-16 16:00N 54°14' W 130°21'4 7.8
2019-Apr-16 15:30N 54°18' W 130°22'0 0.8
2019-Apr-16 15:00N 54°18' W 130°21'0 0.0
2019-Apr-16 14:30N 54°18' W 130°21'0 0.0
2019-Apr-16 14:00N 54°18' W 130°21'0 0.0
2019-Apr-16 13:30N 54°18' W 130°21'0 0.0
2019-Apr-16 13:00N 54°18' W 130°21'0 0.0
2019-Apr-16 12:30N 54°18' W 130°21'1 2.7
2019-Apr-16 12:00N 54°17' W 130°22'3 6.7
2019-Apr-16 11:30N 54°13' W 130°22'511.0
2019-Apr-16 11:01N 54°16' W 130°30'713.9
2019-Apr-16 10:30N 54°22' W 130°36'715.0
2019-Apr-16 10:00N 54°29' W 130°38'714.8
2019-Apr-16 09:30N 54°37' W 130°42'815.1
2019-Apr-16 09:00N 54°43' W 130°50'814.6
2019-Apr-16 08:25N 54°50' W 130°58'247 6.1
2019-Apr-14 15:57N 58°09' W 135°22'4 3.1
2019-Apr-14 14:36N 58°07' W 135°29'1 8.5
2019-Apr-14 14:30N 58°08' W 135°29'  
Track history (hours):
 
Tides and Currents Weather Stations Pressure Air Temp Water Temp Dewpoint Dewpoint Depression Visibility Wind Speed Wind Dir Waves Ship Positions

Malaspina

Owner: ALASKA, STATE OF, ANCHORAGE, AK. More information available from US FCC via Universal Licensing System and Coast Guard Vessel Documentation Center.

Last reported at 2019-Apr-23 22:50 UTC. Time now 2019-Apr-24 21:51 UTC.
Position N 54°45' W 130°57'.

Type: Passenger vessel. MMSI: 367143000.

Date/timePositionNaut miles runAvg speedWind from/ knotsBaromVisibWave heightAir tempDewpointWater temp
2019-Apr-23 22:50N 54°45' W 130°57'1814.4
2019-Apr-23 21:35N 54°31' W 130°39'215.5
2019-Apr-23 21:28N 54°29' W 130°38'715.2
2019-Apr-23 21:00N 54°22' W 130°36'815.1
2019-Apr-23 20:30N 54°16' W 130°29'5 9.6
2019-Apr-23 20:00N 54°14' W 130°21'4 7.4
2019-Apr-23 19:30N 54°18' W 130°22'0 0.5
2019-Apr-23 18:55N 54°18' W 130°21'0 0.0
2019-Apr-23 18:19N 54°18' W 130°21'0 0.0
2019-Apr-23 17:55N 54°18' W 130°21'0 0.0
2019-Apr-23 17:25N 54°18' W 130°21'0 0.0
2019-Apr-23 17:00N 54°18' W 130°21'3 5.5
2019-Apr-23 16:30N 54°15' W 130°21'3 5.6
2019-Apr-23 16:00N 54°14' W 130°25'3 6.1
2019-Apr-23 15:30N 54°15' W 130°29'2 3.2
2019-Apr-23 15:00N 54°14' W 130°27'613.0
2019-Apr-23 14:30N 54°19' W 130°35'815.0
2019-Apr-23 14:00N 54°26' W 130°37'815.3
2019-Apr-23 13:30N 54°34' W 130°40'1615.1
2019-Apr-23 12:27N 54°46' W 130°57'250 6.4
2019-Apr-21 21:38N 58°09' W 135°20'215.2
2019-Apr-21 21:30N 58°09' W 135°24'3 2.3
2019-Apr-21 20:07N 58°07' W 135°28'1 9.2
2019-Apr-21 19:59N 58°08' W 135°28'  
2019-Apr-18 14:19N 58°09' W 135°20'513.9
2019-Apr-18 14:00N 58°08' W 135°28'1 0.8
2019-Apr-18 12:57N 58°07' W 135°27'1 2.3
2019-Apr-18 12:30N 58°08' W 135°29'258 6.1
2019-Apr-16 18:23N 54°42' W 130°50'615.5
2019-Apr-16 18:00N 54°37' W 130°43'714.8
2019-Apr-16 17:30N 54°30' W 130°39'815.8
2019-Apr-16 17:00N 54°22' W 130°36'815.1
2019-Apr-16 16:30N 54°16' W 130°30'611.1
2019-Apr-16 16:00N 54°14' W 130°21'4 7.8
2019-Apr-16 15:30N 54°18' W 130°22'0 0.8
2019-Apr-16 15:00N 54°18' W 130°21'0 0.0
2019-Apr-16 14:30N 54°18' W 130°21'0 0.0
2019-Apr-16 14:00N 54°18' W 130°21'0 0.0
2019-Apr-16 13:30N 54°18' W 130°21'0 0.0
2019-Apr-16 13:00N 54°18' W 130°21'0 0.0
2019-Apr-16 12:30N 54°18' W 130°21'1 2.7
2019-Apr-16 12:00N 54°17' W 130°22'3 6.7
2019-Apr-16 11:30N 54°13' W 130°22'511.0
2019-Apr-16 11:01N 54°16' W 130°30'713.9
2019-Apr-16 10:30N 54°22' W 130°36'715.0
2019-Apr-16 10:00N 54°29' W 130°38'714.8
2019-Apr-16 09:30N 54°37' W 130°42'815.1
2019-Apr-16 09:00N 54°43' W 130°50'814.6
2019-Apr-16 08:25N 54°50' W 130°58'247 6.1
2019-Apr-14 15:57N 58°09' W 135°22'4 3.1
2019-Apr-14 14:36N 58°07' W 135°29'1 8.5
2019-Apr-14 14:30N 58°08' W 135°29'  

Dump ship's entire track history